Airfield :
LOGIN :

Register | Disclaimer

   EN    FR    IT 

 










Legend :    VFR   Marginal VFR   IFR   Intensive IFR   Very Intensive IFR
Visi :
Ceiling :
>= 8 km
>= 3000ft
5 to 8 km
1000 to 3000 ft
1500m to 5 km
500 to 1000 ft
800 to 1500m
200 to 500 ft
< 800m
< 200 ft
Symbols :   Thunderstorms  Fog  Heavy snow  Heavy precipitations  Wind > 20 kt
SIGMETs :     Misc.  Thunderstorms  Icing  Turbulence  Mountain Waves  Volcanic Ashes






- Airport Elevation : 195 ft


LFMY - Salon de Provence

CURRENT METAR :
  • 291630Z AUTO 32010KT 280V340 CAVOK 18/09 Q1023

EXPIRED METARs :
  • 291600Z AUTO 30008KT 270V330 CAVOK 19/09 Q1023 BECMG 31017G27KT
  • 291530Z AUTO 31005KT 270V340 CAVOK 20/10 Q1023 BECMG 31017G27KT
  • 291500Z AUTO 30009KT 260V340 CAVOK 20/09 Q1022 BECMG 31017G27KT
  • 291430Z AUTO 31008KT 270V350 CAVOK 20/10 Q1022 BECMG 31017G27KT
  • 291400Z AUTO 30010KT 260V340 CAVOK 20/10 Q1022 BECMG 31015G25KT

TAF AMD TAF LFMY
Valid from the 29 at 15:00 until the 30 at 15:00 UTC


291546Z 2915/3015 31015KT CAVOK TX22/3014Z TN07/3006Z
TEMPO 2915/2922 33017G27KT
BECMG 3000/3002 36005KT



MET'MAP, your aeronautical weather chart ! - Copyright ORBIFLY December 2007 - Disclaimer

ORBIFLY MET'MAP TEAM :

Programming & Development : Alexandra Zaïnal
Concept & original design : Baudouin d'Aumeries
Assistance for programming : Marc-Olivier Méhu
Technical & hardware support : Manuel Goepfert

Contact : metmap@orbifly.com




SOURCES & CREDITS :

   NOAA